createdAt,value
2019-02-26T00:01:08.242Z,13.50
2019-02-26T00:03:35.415Z,12.60
2019-02-26T00:06:03.729Z,11.83
2019-02-26T00:08:31.707Z,14.13
2019-02-26T00:11:00.802Z,13.03
2019-02-26T00:13:29.156Z,12.77
2019-02-26T00:15:55.604Z,14.67
2019-02-26T00:18:23.559Z,11.07
2019-02-26T00:20:50.234Z,12.70
2019-02-26T00:23:16.777Z,10.57
2019-02-26T00:25:43.418Z,15.70
2019-02-26T00:28:11.105Z,11.23
2019-02-26T00:30:40.254Z,11.87
2019-02-26T00:33:06.610Z,11.93
2019-02-26T00:35:33.174Z,13.43
2019-02-26T00:38:00.502Z,10.53
2019-02-26T00:40:27.102Z,13.30
2019-02-26T00:42:55.033Z,13.13
2019-02-26T00:45:24.783Z,11.17
2019-02-26T00:47:50.871Z,12.23
2019-02-26T00:50:17.444Z,12.40
2019-02-26T00:52:44.046Z,11.60
2019-02-26T00:55:10.719Z,13.13
2019-02-26T00:57:38.818Z,12.70
2019-02-26T01:00:09.822Z,13.03
2019-02-26T01:02:36.570Z,11.97
2019-02-26T01:05:04.036Z,10.47
2019-02-26T01:07:31.960Z,12.13
2019-02-26T01:09:59.247Z,15.47
2019-02-26T01:12:25.887Z,12.47
2019-02-26T01:14:52.623Z,13.73
2019-02-26T01:17:19.199Z,11.70
2019-02-26T01:19:46.183Z,11.37
2019-02-26T01:22:12.857Z,11.33
2019-02-26T01:24:39.467Z,10.20
2019-02-26T01:27:06.066Z,12.77
2019-02-26T01:29:32.651Z,10.37
2019-02-26T01:31:59.358Z,11.17
2019-02-26T01:34:26.095Z,12.70
2019-02-26T01:36:53.001Z,13.00
2019-02-26T01:39:21.598Z,13.00
2019-02-26T01:41:50.379Z,11.90
2019-02-26T01:44:16.809Z,11.53
2019-02-26T01:46:43.947Z,16.93
2019-02-26T01:49:10.883Z,12.17
2019-02-26T01:51:37.461Z,12.23
2019-02-26T01:54:05.280Z,13.30
2019-02-26T01:56:34.015Z,12.27
2019-02-26T01:59:02.296Z,11.47
2019-02-26T02:01:29.717Z,12.13
2019-02-26T02:03:56.463Z,12.43
2019-02-26T02:06:23.160Z,11.17
2019-02-26T02:08:50.581Z,10.80
2019-02-26T02:11:18.455Z,13.87
2019-02-26T02:13:45.143Z,14.13
2019-02-26T02:16:11.694Z,11.87
2019-02-26T02:18:38.308Z,13.13
2019-02-26T02:21:04.941Z,10.00
2019-02-26T02:23:31.790Z,12.30
2019-02-26T02:26:02.149Z,12.20
2019-02-26T02:28:30.824Z,10.20
2019-02-26T02:30:56.125Z,10.43
2019-02-26T02:33:24.184Z,12.73
2019-02-26T02:35:51.635Z,13.17
2019-02-26T02:38:20.382Z,14.73
2019-02-26T02:40:48.912Z,13.03
2019-02-26T02:43:17.535Z,13.17
2019-02-26T02:45:43.543Z,12.37
2019-02-26T02:48:11.760Z,13.77
2019-02-26T02:50:38.972Z,11.60
2019-02-26T02:53:05.659Z,11.93
2019-02-26T02:55:32.253Z,11.87
2019-02-26T02:58:00.521Z,11.90
2019-02-26T03:00:28.740Z,12.53
2019-02-26T03:02:58.122Z,14.60
2019-02-26T03:05:24.519Z,13.17
2019-02-26T03:07:53.492Z,12.73
2019-02-26T03:10:19.660Z,12.03
2019-02-26T03:12:48.604Z,13.63
2019-02-26T03:15:16.017Z,11.60
2019-02-26T03:17:42.965Z,10.23
2019-02-26T03:20:10.158Z,15.60
2019-02-26T03:22:39.031Z,10.37
2019-02-26T03:25:05.285Z,12.63
2019-02-26T03:27:34.145Z,11.33
2019-02-26T03:30:02.008Z,12.27
2019-02-26T03:32:29.346Z,10.37
2019-02-26T03:34:56.170Z,12.17
2019-02-26T03:37:23.368Z,11.57
2019-02-26T03:39:55.216Z,9.43
2019-02-26T03:42:21.518Z,8.57
2019-02-26T03:44:47.998Z,10.97
2019-02-26T03:47:16.283Z,10.60
2019-02-26T03:49:43.392Z,11.27
2019-02-26T03:52:10.037Z,12.90
2019-02-26T03:54:37.862Z,12.17
2019-02-26T03:57:05.451Z,13.20
2019-02-26T03:59:33.233Z,9.30
2019-02-26T04:01:59.845Z,13.10
2019-02-26T04:04:30.463Z,12.20
2019-02-26T04:06:55.897Z,10.83
2019-02-26T04:09:23.281Z,11.63
2019-02-26T04:11:51.070Z,12.13
2019-02-26T04:14:20.170Z,11.33
2019-02-26T04:16:46.856Z,9.77
2019-02-26T04:19:13.441Z,13.13
2019-02-26T04:21:41.165Z,8.80
2019-02-26T04:24:08.592Z,11.33
2019-02-26T04:26:36.331Z,11.33
2019-02-26T04:29:03.070Z,11.03
2019-02-26T04:31:29.822Z,11.30
2019-02-26T04:33:58.929Z,12.10
2019-02-26T04:36:24.960Z,10.90
2019-02-26T04:38:53.178Z,11.33
2019-02-26T04:41:20.231Z,10.23
2019-02-26T04:43:46.901Z,11.10
2019-02-26T04:46:13.742Z,11.87
2019-02-26T04:48:41.459Z,8.87
2019-02-26T04:51:08.085Z,12.00
2019-02-26T04:53:36.462Z,12.67
2019-02-26T04:56:05.949Z,9.70
2019-02-26T04:58:34.199Z,8.07
2019-02-26T05:01:00.604Z,10.10
2019-02-26T05:03:27.274Z,13.00
2019-02-26T05:05:56.435Z,10.47
2019-02-26T05:08:22.485Z,7.70
2019-02-26T05:10:51.759Z,9.80
2019-02-26T05:13:17.628Z,9.33
2019-02-26T05:15:44.672Z,11.90
2019-02-26T05:18:11.629Z,10.90
2019-02-26T05:20:40.133Z,11.63
2019-02-26T05:23:06.812Z,9.97
2019-02-26T05:25:35.055Z,9.50
2019-02-26T05:28:03.802Z,9.17
2019-02-26T05:30:30.582Z,9.60
2019-02-26T05:33:00.252Z,12.77
2019-02-26T05:35:25.679Z,8.57
2019-02-26T05:37:52.360Z,11.77
2019-02-26T05:40:21.969Z,8.10
2019-02-26T05:42:47.724Z,9.93
2019-02-26T05:45:14.364Z,9.03
2019-02-26T05:47:42.901Z,9.57
2019-02-26T05:50:14.295Z,9.17
2019-02-26T05:52:38.996Z,9.50
2019-02-26T05:55:05.608Z,7.93
2019-02-26T05:57:32.821Z,10.17
2019-02-26T05:59:59.581Z,12.97
2019-02-26T06:02:26.578Z,9.70
2019-02-26T06:04:53.245Z,10.90
2019-02-26T06:07:24.066Z,12.33
2019-02-26T06:09:50.999Z,10.10
2019-02-26T06:12:16.879Z,8.70
2019-02-26T06:14:43.508Z,11.87
2019-02-26T06:17:12.528Z,10.30
2019-02-26T06:19:42.179Z,10.20
2019-02-26T06:22:08.946Z,11.33
2019-02-26T06:24:38.102Z,10.20
2019-02-26T06:27:08.608Z,9.87
2019-02-26T06:29:34.909Z,9.57
2019-02-26T06:32:03.050Z,13.03
2019-02-26T06:34:30.303Z,9.60
2019-02-26T06:36:56.907Z,10.00
2019-02-26T06:39:24.497Z,10.50
2019-02-26T06:41:52.285Z,10.83
2019-02-26T06:44:20.787Z,10.77
2019-02-26T06:46:47.520Z,8.97
2019-02-26T06:49:14.996Z,11.13
2019-02-26T06:51:43.359Z,11.23
2019-02-26T06:54:11.347Z,7.50
2019-02-26T06:56:43.731Z,11.27
2019-02-26T06:59:09.878Z,9.03
2019-02-26T07:01:37.939Z,10.30
2019-02-26T07:04:07.080Z,9.93
2019-02-26T07:06:34.905Z,10.20
2019-02-26T07:09:01.638Z,10.40
2019-02-26T07:11:30.533Z,8.83
2019-02-26T07:13:58.341Z,9.17
2019-02-26T07:16:25.566Z,8.33
2019-02-26T07:18:52.334Z,10.97
2019-02-26T07:21:19.436Z,7.87
2019-02-26T07:23:46.150Z,9.60
2019-02-26T07:26:13.640Z,10.57
2019-02-26T07:28:42.226Z,11.00
2019-02-26T07:31:12.148Z,8.83
2019-02-26T07:33:39.583Z,9.57
2019-02-26T07:36:06.868Z,11.03
2019-02-26T07:38:40.869Z,11.53
2019-02-26T07:41:03.620Z,8.17
2019-02-26T07:43:30.333Z,10.60
2019-02-26T07:45:56.974Z,14.07
2019-02-26T07:48:26.403Z,12.23
2019-02-26T07:50:52.593Z,13.00
2019-02-26T07:53:21.950Z,10.67
2019-02-26T07:55:47.975Z,7.70
2019-02-26T07:58:15.580Z,11.93
2019-02-26T08:00:47.161Z,11.00
2019-02-26T08:03:11.696Z,9.27
2019-02-26T08:05:38.402Z,9.53
2019-02-26T08:08:06.898Z,9.67
2019-02-26T08:10:37.168Z,13.03
2019-02-26T08:13:03.359Z,11.57
2019-02-26T08:15:32.864Z,9.67
2019-02-26T08:18:01.301Z,8.60
2019-02-26T08:20:30.225Z,8.10
2019-02-26T08:22:58.592Z,9.73
2019-02-26T08:25:24.999Z,8.97
2019-02-26T08:27:53.552Z,11.57
2019-02-26T08:30:22.933Z,10.10
2019-02-26T08:32:51.489Z,8.90
2019-02-26T08:35:18.830Z,10.43
2019-02-26T08:37:45.901Z,9.97
2019-02-26T08:40:12.749Z,11.53
2019-02-26T08:42:39.571Z,9.20
2019-02-26T08:45:06.207Z,11.37
2019-02-26T08:47:33.193Z,11.60
2019-02-26T08:50:01.749Z,10.73
2019-02-26T08:52:29.375Z,11.10
2019-02-26T08:54:56.297Z,10.70
2019-02-26T08:57:23.089Z,11.37
2019-02-26T08:59:52.054Z,11.70
2019-02-26T09:02:18.247Z,10.13
2019-02-26T09:04:47.334Z,10.30
2019-02-26T09:07:14.095Z,15.10
2019-02-26T09:09:41.857Z,15.10
2019-02-26T09:12:08.535Z,12.67
2019-02-26T09:14:37.557Z,12.90
2019-02-26T09:17:04.704Z,14.93
2019-02-26T09:19:33.164Z,16.27
2019-02-26T09:22:01.251Z,14.57
2019-02-26T09:24:27.911Z,18.90
2019-02-26T09:26:57.232Z,12.73
2019-02-26T09:29:23.454Z,19.10
2019-02-26T09:31:50.000Z,15.77
2019-02-26T09:34:16.718Z,18.30
2019-02-26T09:36:45.785Z,13.07
2019-02-26T09:39:13.244Z,14.90
2019-02-26T09:41:40.793Z,17.23
2019-02-26T09:44:09.656Z,17.03
2019-02-26T09:46:38.813Z,14.93
2019-02-26T09:49:11.823Z,19.00
2019-02-26T09:51:37.546Z,18.67
2019-02-26T09:54:06.426Z,16.67
2019-02-26T09:56:33.486Z,19.20
2019-02-26T09:59:02.295Z,18.40
2019-02-26T10:01:30.171Z,20.30
2019-02-26T10:04:00.806Z,18.47
2019-02-26T10:06:25.723Z,18.73
2019-02-26T10:08:53.272Z,15.63
2019-02-26T10:11:23.037Z,25.17
2019-02-26T10:13:51.158Z,18.07
2019-02-26T10:16:21.129Z,14.97
2019-02-26T10:18:47.408Z,15.70
2019-02-26T10:21:17.579Z,19.93
2019-02-26T10:23:47.203Z,14.60
2019-02-26T10:26:11.851Z,18.10
2019-02-26T10:28:42.016Z,14.47
2019-02-26T10:31:09.554Z,14.37
2019-02-26T10:33:37.800Z,13.87
2019-02-26T10:36:05.436Z,19.63
2019-02-26T10:38:33.624Z,15.30
2019-02-26T10:41:01.845Z,15.97
2019-02-26T10:43:28.735Z,12.60
2019-02-26T10:45:56.698Z,13.20
2019-02-26T10:48:24.998Z,14.60
2019-02-26T10:50:52.143Z,12.53
2019-02-26T10:53:20.382Z,10.87
2019-02-26T10:55:47.401Z,12.93
2019-02-26T10:58:14.004Z,10.10
2019-02-26T11:00:42.421Z,14.90
2019-02-26T11:03:11.981Z,15.77
2019-02-26T11:05:39.841Z,15.80
2019-02-26T11:08:09.151Z,11.90
2019-02-26T11:10:39.342Z,11.03
2019-02-26T11:13:03.232Z,11.43
2019-02-26T11:15:32.943Z,11.13
2019-02-26T11:17:58.575Z,12.63
2019-02-26T11:20:27.683Z,13.67
2019-02-26T11:22:53.502Z,11.97
2019-02-26T11:25:22.464Z,11.27
2019-02-26T11:27:48.705Z,17.30
2019-02-26T11:30:17.601Z,17.57
2019-02-26T11:32:43.845Z,11.00
2019-02-26T11:35:10.939Z,11.67
2019-02-26T11:37:37.603Z,16.13
2019-02-26T11:40:05.556Z,12.40
2019-02-26T11:42:32.280Z,9.67
2019-02-26T11:44:59.468Z,11.17
2019-02-26T11:47:26.568Z,12.17
2019-02-26T11:49:53.228Z,12.00
2019-02-26T11:52:20.268Z,10.37
2019-02-26T11:54:46.937Z,11.03
2019-02-26T11:57:15.401Z,8.67
2019-02-26T11:59:42.859Z,10.47
2019-02-26T12:02:09.844Z,9.73
2019-02-26T12:04:37.814Z,11.57
2019-02-26T12:07:06.826Z,10.50
2019-02-26T12:09:35.677Z,8.90
2019-02-26T12:12:03.495Z,10.53
2019-02-26T12:14:30.588Z,12.47
2019-02-26T12:16:57.440Z,10.00
2019-02-26T12:19:25.639Z,14.23
2019-02-26T12:21:55.142Z,10.97
2019-02-26T12:24:21.682Z,9.43
2019-02-26T12:26:49.985Z,9.10
2019-02-26T12:29:18.697Z,12.77
2019-02-26T12:31:45.614Z,7.60
2019-02-26T12:34:14.612Z,9.57
2019-02-26T12:36:41.186Z,10.53
2019-02-26T12:39:08.338Z,10.70
2019-02-26T12:41:36.542Z,10.53
2019-02-26T12:44:08.141Z,11.63
2019-02-26T12:46:33.824Z,11.03
2019-02-26T12:49:03.059Z,10.70
2019-02-26T12:51:31.937Z,9.40
2019-02-26T12:53:57.461Z,8.63
2019-02-26T12:56:24.833Z,12.03
2019-02-26T12:58:54.562Z,9.20
2019-02-26T13:01:21.133Z,9.60
2019-02-26T13:03:53.971Z,10.43
2019-02-26T13:06:18.752Z,8.07
2019-02-26T13:08:47.152Z,8.43
2019-02-26T13:11:14.154Z,10.10
2019-02-26T13:13:41.986Z,11.20
2019-02-26T13:16:08.597Z,11.50
2019-02-26T13:18:35.287Z,11.67
2019-02-26T13:21:03.956Z,12.27
2019-02-26T13:23:30.361Z,9.13
2019-02-26T13:25:57.023Z,11.80
2019-02-26T13:28:29.534Z,9.20
2019-02-26T13:30:53.097Z,9.30
2019-02-26T13:33:26.377Z,11.43
2019-02-26T13:35:52.322Z,12.47
2019-02-26T13:38:16.968Z,10.17
2019-02-26T13:40:43.648Z,9.10
2019-02-26T13:43:10.263Z,10.83
2019-02-26T13:45:36.990Z,9.80
2019-02-26T13:48:03.684Z,11.10
2019-02-26T13:50:30.320Z,14.37
2019-02-26T13:52:56.934Z,10.90
2019-02-26T13:55:23.538Z,9.93
2019-02-26T13:57:50.281Z,14.07
2019-02-26T14:00:19.827Z,13.23
2019-02-26T14:02:45.378Z,13.23
2019-02-26T14:05:11.967Z,11.67
2019-02-26T14:07:38.610Z,14.30
2019-02-26T14:10:05.212Z,13.47
2019-02-26T14:12:34.906Z,12.63
2019-02-26T14:15:03.237Z,12.83
2019-02-26T14:17:29.928Z,12.43
2019-02-26T14:19:56.549Z,14.13
2019-02-26T14:22:27.445Z,13.90
2019-02-26T14:24:54.246Z,12.97
2019-02-26T14:27:20.946Z,13.00
2019-02-26T14:29:47.575Z,10.93
2019-02-26T14:32:14.150Z,13.97
2019-02-26T14:34:41.056Z,13.97
2019-02-26T14:37:08.062Z,15.10
2019-02-26T14:39:34.686Z,17.87
2019-02-26T14:42:01.364Z,14.73
2019-02-26T14:44:27.930Z,13.50
2019-02-26T14:46:55.310Z,17.53
2019-02-26T14:49:22.149Z,12.93
2019-02-26T14:51:48.756Z,15.33
2019-02-26T14:54:15.325Z,14.00
2019-02-26T14:56:41.943Z,14.00
2019-02-26T14:59:08.570Z,15.23
2019-02-26T15:01:35.166Z,16.23
2019-02-26T15:04:02.161Z,11.53
2019-02-26T15:06:28.760Z,12.40
2019-02-26T15:08:55.442Z,12.37
2019-02-26T15:11:22.003Z,12.83
2019-02-26T15:13:48.648Z,12.47
2019-02-26T15:16:15.413Z,14.23
2019-02-26T15:18:42.168Z,13.30
2019-02-26T15:21:08.870Z,13.63
2019-02-26T15:23:35.475Z,12.80
2019-02-26T15:26:02.107Z,15.00
2019-02-26T15:28:28.779Z,12.07
2019-02-26T15:30:55.431Z,14.67
2019-02-26T15:33:22.399Z,12.13
2019-02-26T15:35:49.372Z,12.80
2019-02-26T15:38:16.125Z,12.30
2019-02-26T15:40:43.550Z,11.07
2019-02-26T15:43:10.497Z,11.30
2019-02-26T15:45:37.382Z,12.40
2019-02-26T15:48:04.671Z,10.57
2019-02-26T15:50:31.341Z,14.80
2019-02-26T15:52:58.291Z,14.33
2019-02-26T15:55:28.693Z,17.40
2019-02-26T15:57:55.986Z,12.87
2019-02-26T16:00:23.013Z,13.70
2019-02-26T16:02:49.646Z,12.10
2019-02-26T16:07:55.180Z,15.03
2019-02-26T16:10:22.736Z,13.27
2019-02-26T16:12:49.675Z,16.33
2019-02-26T16:15:16.887Z,13.60
2019-02-26T16:17:43.859Z,17.10
2019-02-26T16:20:10.567Z,13.87
2019-02-26T16:22:37.289Z,14.13
2019-02-26T16:25:07.502Z,12.93
2019-02-26T16:27:37.666Z,13.77
2019-02-26T16:30:01.111Z,16.73
2019-02-26T16:32:27.818Z,15.73
2019-02-26T16:34:54.503Z,15.03
2019-02-26T16:37:21.583Z,15.30
2019-02-26T16:39:48.205Z,16.43
2019-02-26T16:42:14.922Z,15.67
2019-02-26T16:44:41.941Z,16.90
2019-02-26T16:47:08.782Z,17.73
2019-02-26T16:49:35.415Z,15.07
2019-02-26T16:52:04.386Z,16.93
2019-02-26T16:54:30.921Z,15.37
2019-02-26T16:56:58.698Z,15.67
2019-02-26T16:59:25.425Z,13.87
2019-02-26T17:01:52.614Z,17.70
2019-02-26T17:04:20.675Z,14.63
2019-02-26T17:06:47.554Z,14.17
2019-02-26T17:09:14.629Z,13.97
2019-02-26T17:11:41.668Z,14.57
2019-02-26T17:14:08.523Z,13.70
2019-02-26T17:16:35.404Z,14.83
2019-02-26T17:19:01.962Z,11.07
2019-02-26T17:21:30.599Z,14.10
2019-02-26T17:23:57.002Z,14.67
2019-02-26T17:26:23.704Z,13.73
2019-02-26T17:28:50.338Z,13.50
2019-02-26T17:31:17.841Z,13.40
2019-02-26T17:33:44.767Z,12.17
2019-02-26T17:36:12.989Z,12.77
2019-02-26T17:38:39.635Z,13.20
2019-02-26T17:41:06.463Z,13.17
2019-02-26T17:43:33.083Z,12.97
2019-02-26T17:46:00.049Z,14.80
2019-02-26T17:48:30.307Z,13.93
2019-02-26T17:50:57.862Z,12.87
2019-02-26T17:53:23.450Z,11.67
2019-02-26T17:55:50.056Z,14.60
2019-02-26T17:58:17.988Z,13.13
2019-02-26T18:00:46.038Z,15.37
2019-02-26T18:03:12.667Z,12.30
2019-02-26T18:05:50.636Z,12.57
2019-02-26T18:08:07.781Z,11.60
2019-02-26T18:10:36.575Z,11.03
2019-02-26T18:13:03.240Z,11.43
2019-02-26T18:15:30.174Z,11.90
2019-02-26T18:17:56.777Z,13.33
2019-02-26T18:20:27.753Z,12.87
2019-02-26T18:22:52.282Z,12.90
2019-02-26T18:25:18.871Z,10.73
2019-02-26T18:27:46.708Z,12.60
2019-02-26T18:30:15.080Z,11.63
2019-02-26T18:32:49.959Z,11.50
2019-02-26T18:35:10.460Z,12.10
2019-02-26T18:37:46.028Z,12.97
2019-02-26T18:40:07.501Z,11.77
2019-02-26T18:42:34.575Z,13.27
2019-02-26T18:45:02.279Z,12.33
2019-02-26T18:47:28.961Z,12.23
2019-02-26T18:49:56.088Z,15.57
2019-02-26T18:52:22.853Z,16.47
2019-02-26T18:54:51.751Z,15.40
2019-02-26T18:57:17.982Z,14.87
2019-02-26T18:59:46.341Z,14.37
2019-02-26T19:02:13.367Z,15.50
2019-02-26T19:04:39.992Z,18.13
2019-02-26T19:07:06.607Z,15.17
2019-02-26T19:09:33.427Z,18.70
2019-02-26T19:12:00.270Z,14.13
2019-02-26T19:14:26.872Z,12.73
2019-02-26T19:16:54.928Z,15.77
2019-02-26T19:19:21.975Z,15.87
2019-02-26T19:21:48.788Z,13.57
2019-02-26T19:24:15.530Z,17.67
2019-02-26T19:26:44.485Z,17.10
2019-02-26T19:29:10.740Z,18.27
2019-02-26T19:31:37.472Z,18.43
2019-02-26T19:34:05.331Z,17.37
2019-02-26T19:36:32.301Z,15.63
2019-02-26T19:39:00.868Z,15.30
2019-02-26T19:41:27.536Z,17.97
2019-02-26T19:43:54.173Z,16.73
2019-02-26T19:46:20.891Z,16.07
2019-02-26T19:48:47.767Z,16.23
2019-02-26T19:51:14.353Z,15.67
2019-02-26T19:53:40.989Z,16.17
2019-02-26T19:56:07.766Z,15.43
2019-02-26T19:58:34.571Z,15.67
2019-02-26T20:01:01.666Z,16.40
2019-02-26T20:03:39.241Z,16.47
2019-02-26T20:05:56.732Z,15.43
2019-02-26T20:08:23.574Z,16.57
2019-02-26T20:10:53.347Z,16.67
2019-02-26T20:13:18.731Z,16.97
2019-02-26T20:15:45.567Z,18.03
2019-02-26T20:18:20.263Z,16.37
2019-02-26T20:20:41.204Z,16.07
2019-02-26T20:23:07.947Z,18.17
2019-02-26T20:25:34.757Z,15.83
2019-02-26T20:28:05.292Z,17.17
2019-02-26T20:30:30.155Z,15.63
2019-02-26T20:32:56.701Z,18.13
2019-02-26T20:35:23.311Z,17.20
2019-02-26T20:37:49.920Z,21.43
2019-02-26T20:40:16.907Z,15.00
2019-02-26T20:42:43.599Z,16.67
2019-02-26T20:45:10.325Z,15.50
2019-02-26T20:47:37.028Z,16.57
2019-02-26T20:50:03.936Z,15.23
2019-02-26T20:52:33.372Z,16.43
2019-02-26T20:55:02.423Z,19.30
2019-02-26T20:57:29.729Z,13.90
2019-02-26T20:59:56.349Z,16.10
2019-02-26T21:02:23.995Z,14.50
2019-02-26T21:04:50.746Z,15.10
2019-02-26T21:07:17.515Z,16.37
2019-02-26T21:09:44.177Z,15.83
2019-02-26T21:12:10.798Z,17.90
2019-02-26T21:14:41.279Z,18.67
2019-02-26T21:17:08.064Z,16.87
2019-02-26T21:19:36.784Z,16.93
2019-02-26T21:22:03.378Z,16.03
2019-02-26T21:24:31.947Z,15.73
2019-02-26T21:26:59.152Z,15.93
2019-02-26T21:29:25.837Z,15.87
2019-02-26T21:31:52.743Z,18.23
2019-02-26T21:34:19.545Z,14.57
2019-02-26T21:36:46.179Z,16.10
2019-02-26T21:39:12.899Z,16.03
2019-02-26T21:41:39.565Z,18.67
2019-02-26T21:44:08.792Z,20.20
2019-02-26T21:46:34.857Z,17.83
2019-02-26T21:49:01.646Z,18.63
2019-02-26T21:51:28.231Z,15.07
2019-02-26T21:53:54.814Z,13.53
2019-02-26T21:56:21.548Z,17.73
2019-02-26T21:58:48.419Z,18.53
2019-02-26T22:01:15.019Z,18.17
2019-02-26T22:03:42.205Z,14.70
2019-02-26T22:06:10.909Z,15.80
2019-02-26T22:08:38.701Z,15.70
2019-02-26T22:11:05.353Z,17.67
2019-02-26T22:13:31.954Z,17.30
2019-02-26T22:15:58.736Z,14.87
2019-02-26T22:18:25.360Z,14.83
2019-02-26T22:20:51.919Z,15.17
2019-02-26T22:23:18.581Z,18.33
2019-02-26T22:25:45.247Z,18.07
2019-02-26T22:28:12.153Z,17.73
2019-02-26T22:30:39.235Z,17.77
2019-02-26T22:33:08.060Z,18.83
2019-02-26T22:35:35.535Z,16.47
2019-02-26T22:38:02.223Z,16.23
2019-02-26T22:40:29.656Z,13.97
2019-02-26T22:42:56.237Z,16.57
2019-02-26T22:45:22.821Z,14.93
2019-02-26T22:47:49.522Z,15.43
2019-02-26T22:52:55.868Z,16.40
2019-02-26T22:55:22.527Z,14.37
2019-02-26T22:57:49.259Z,16.80
2019-02-26T23:00:17.676Z,16.90
2019-02-26T23:02:44.611Z,13.23
2019-02-26T23:05:11.228Z,12.20
2019-02-26T23:07:39.950Z,15.33
2019-02-26T23:10:06.211Z,18.93
2019-02-26T23:12:32.773Z,17.03
2019-02-26T23:14:59.352Z,17.90
2019-02-26T23:17:25.972Z,13.33
2019-02-26T23:19:55.054Z,15.40
2019-02-26T23:22:23.326Z,15.53
2019-02-26T23:24:50.182Z,17.17
2019-02-26T23:27:18.126Z,14.33
2019-02-26T23:29:45.257Z,16.67
2019-02-26T23:32:12.148Z,16.30
2019-02-26T23:34:38.756Z,13.07
2019-02-26T23:37:05.356Z,17.20
2019-02-26T23:39:33.718Z,15.10
2019-02-26T23:42:00.494Z,12.80
2019-02-26T23:44:28.983Z,13.27
2019-02-26T23:46:55.525Z,13.53
2019-02-26T23:49:22.214Z,17.13
2019-02-26T23:51:51.001Z,19.77
2019-02-26T23:54:17.274Z,15.00
2019-02-26T23:56:43.924Z,13.23
2019-02-26T23:59:10.820Z,15.07
